createdAt,value
2022-10-03T00:03:36.285Z,15.43
2022-10-03T00:07:57.346Z,15.46
2022-10-03T00:12:14.506Z,15.47
2022-10-03T00:16:24.770Z,15.47
2022-10-03T00:20:47.990Z,15.46
2022-10-03T00:25:07.687Z,15.42
2022-10-03T00:29:26.172Z,15.41
2022-10-03T00:33:40.229Z,15.39
2022-10-03T00:37:58.362Z,15.37
2022-10-03T00:42:55.872Z,15.31
2022-10-03T00:47:30.111Z,15.31
2022-10-03T00:51:46.235Z,15.29
2022-10-03T00:56:03.846Z,15.26
2022-10-03T01:00:19.424Z,15.20
2022-10-03T01:04:34.867Z,15.21
2022-10-03T01:09:00.140Z,15.19
2022-10-03T01:13:18.368Z,15.17
2022-10-03T01:17:33.604Z,15.15
2022-10-03T01:21:48.219Z,15.09
2022-10-03T01:25:59.444Z,15.06
2022-10-03T01:30:25.385Z,15.02
2022-10-03T01:34:32.690Z,14.98
2022-10-03T01:38:41.962Z,14.95
2022-10-03T01:42:55.958Z,14.93
2022-10-03T01:47:19.085Z,14.89
2022-10-03T01:51:25.247Z,14.90
2022-10-03T01:55:39.211Z,14.89
2022-10-03T01:59:52.043Z,14.88
2022-10-03T02:04:07.621Z,14.88
2022-10-03T02:08:25.178Z,14.90
2022-10-03T02:12:35.658Z,14.88
2022-10-03T02:16:45.389Z,14.85
2022-10-03T02:20:55.453Z,14.82
2022-10-03T02:25:21.650Z,14.80
2022-10-03T02:29:48.714Z,14.78
2022-10-03T02:34:33.902Z,14.75
2022-10-03T02:39:08.990Z,14.74
2022-10-03T02:43:54.418Z,14.74
2022-10-03T02:48:33.823Z,14.72
2022-10-03T02:53:15.239Z,14.69
2022-10-03T02:58:06.250Z,14.65
2022-10-03T03:02:36.961Z,14.58
2022-10-03T03:07:15.735Z,14.51
2022-10-03T03:11:51.803Z,14.50
2022-10-03T03:16:30.020Z,14.45
2022-10-03T03:20:49.352Z,14.42
2022-10-03T03:25:12.186Z,14.36
2022-10-03T03:29:26.408Z,14.29
2022-10-03T03:33:40.564Z,14.25
2022-10-03T03:37:57.046Z,14.19
2022-10-03T03:42:14.577Z,14.12
2022-10-03T03:46:31.362Z,14.07
2022-10-03T03:50:48.502Z,14.01
2022-10-03T03:55:29.476Z,13.95
2022-10-03T03:59:47.838Z,13.92
2022-10-03T04:04:02.174Z,13.90
2022-10-03T04:08:26.413Z,13.91
2022-10-03T04:12:44.724Z,13.93
2022-10-03T04:17:18.103Z,13.94
2022-10-03T04:21:42.129Z,13.97
2022-10-03T04:26:18.663Z,13.97
2022-10-03T04:30:32.647Z,14.01
2022-10-03T04:34:48.041Z,14.05
2022-10-03T04:39:04.532Z,14.08
2022-10-03T04:43:17.310Z,14.12
2022-10-03T04:47:28.136Z,14.18
2022-10-03T04:51:52.032Z,14.20
2022-10-03T04:56:13.283Z,14.22
2022-10-03T05:00:25.334Z,14.20
2022-10-03T05:04:37.831Z,14.21
2022-10-03T05:08:51.022Z,14.20
2022-10-03T05:13:01.767Z,14.20
2022-10-03T05:17:21.057Z,14.19
2022-10-03T05:21:33.442Z,14.18
2022-10-03T05:25:53.331Z,14.21
2022-10-03T05:30:03.585Z,14.27
2022-10-03T05:34:23.410Z,14.32
2022-10-03T05:39:04.699Z,14.41
2022-10-03T05:43:24.215Z,14.48
2022-10-03T05:47:48.464Z,14.54
2022-10-03T05:52:12.689Z,14.59
2022-10-03T05:56:28.958Z,14.63
2022-10-03T06:00:50.990Z,14.67
2022-10-03T06:05:13.043Z,14.68
2022-10-03T06:09:42.456Z,14.74
2022-10-03T06:14:08.200Z,14.79
2022-10-03T06:18:33.795Z,14.87
2022-10-03T06:23:19.718Z,14.97
2022-10-03T06:28:03.642Z,15.10
2022-10-03T06:32:33.684Z,15.24
2022-10-03T06:37:07.707Z,15.36
2022-10-03T06:41:56.071Z,15.41
2022-10-03T06:46:32.269Z,15.47
2022-10-03T06:51:09.309Z,15.56
2022-10-03T06:55:42.241Z,15.68
2022-10-03T07:00:12.112Z,15.81
2022-10-03T07:04:53.921Z,16.00
2022-10-03T07:09:31.662Z,16.28
2022-10-03T07:14:11.485Z,16.51
2022-10-03T07:19:01.855Z,16.66
2022-10-03T07:23:41.007Z,16.78
2022-10-03T07:28:03.997Z,16.80
2022-10-03T07:32:23.211Z,16.92
2022-10-03T07:37:14.300Z,17.03
2022-10-03T07:41:45.390Z,17.14
2022-10-03T07:46:14.301Z,17.20
2022-10-03T07:50:45.474Z,17.33
2022-10-03T07:55:22.776Z,17.58
2022-10-03T08:00:12.688Z,17.81
2022-10-03T08:04:58.452Z,18.06
2022-10-03T08:09:29.761Z,18.29
2022-10-03T08:13:44.375Z,18.43
2022-10-03T08:18:14.248Z,18.45
2022-10-03T08:22:31.518Z,18.40
2022-10-03T08:26:49.925Z,18.50
2022-10-03T08:31:19.820Z,18.68
2022-10-03T08:35:42.208Z,18.84
2022-10-03T08:40:00.676Z,18.92
2022-10-03T08:44:52.010Z,18.96
2022-10-03T08:49:27.769Z,18.91
2022-10-03T08:53:57.131Z,18.82
2022-10-03T08:58:23.936Z,18.70
2022-10-03T09:02:54.616Z,18.62
2022-10-03T09:07:44.869Z,18.43
2022-10-03T09:12:09.124Z,18.17
2022-10-03T09:16:45.750Z,17.88
2022-10-03T09:21:23.585Z,17.64
2022-10-03T09:25:43.522Z,17.50
2022-10-03T09:30:29.601Z,17.59
2022-10-03T09:34:57.863Z,17.91
2022-10-03T09:39:21.500Z,18.36
2022-10-03T09:43:53.165Z,18.76
2022-10-03T09:48:34.096Z,19.20
2022-10-03T09:52:53.742Z,19.51
2022-10-03T09:57:29.496Z,19.77
2022-10-03T10:01:41.270Z,19.98
2022-10-03T10:06:08.812Z,20.27
2022-10-03T10:11:04.361Z,20.45
2022-10-03T10:15:33.261Z,20.43
2022-10-03T10:19:54.935Z,20.17
2022-10-03T10:24:16.883Z,19.92
2022-10-03T10:28:46.817Z,19.77
2022-10-03T10:33:32.080Z,19.73
2022-10-03T10:37:59.748Z,19.83
2022-10-03T10:42:39.849Z,20.04
2022-10-03T10:47:18.982Z,20.13
2022-10-03T10:52:14.205Z,20.21
2022-10-03T10:56:57.179Z,20.22
2022-10-03T11:01:30.553Z,20.35
2022-10-03T11:06:13.580Z,20.43
2022-10-03T11:10:39.367Z,20.60
2022-10-03T11:15:36.773Z,20.76
2022-10-03T11:20:21.505Z,20.72
2022-10-03T11:25:02.096Z,20.70
2022-10-03T11:29:41.813Z,20.68
2022-10-03T11:34:49.926Z,20.59
2022-10-03T11:39:05.209Z,20.34
2022-10-03T11:43:36.709Z,20.01
2022-10-03T11:47:51.651Z,19.91
2022-10-03T11:52:06.438Z,20.06
2022-10-03T11:56:22.078Z,20.24
2022-10-03T12:00:25.915Z,20.41
2022-10-03T12:04:44.049Z,20.48
2022-10-03T12:09:03.614Z,20.52
2022-10-03T12:13:15.756Z,20.53
2022-10-03T12:17:29.827Z,20.54
2022-10-03T12:21:46.558Z,20.60
2022-10-03T12:25:54.697Z,20.64
2022-10-03T12:30:02.710Z,20.57
2022-10-03T12:34:33.685Z,20.60
2022-10-03T12:38:51.398Z,20.71
2022-10-03T12:43:15.956Z,20.72
2022-10-03T12:47:56.529Z,20.71
2022-10-03T12:52:07.772Z,20.62
2022-10-03T12:56:31.771Z,20.39
2022-10-03T13:00:58.673Z,20.13
2022-10-03T13:09:48.632Z,19.61
2022-10-03T13:14:08.161Z,19.39
2022-10-03T13:18:45.329Z,19.12
2022-10-03T13:23:05.030Z,18.74
2022-10-03T13:27:35.476Z,18.88
2022-10-03T13:31:51.341Z,18.85
2022-10-03T13:36:24.091Z,18.92
2022-10-03T13:40:45.185Z,18.99
2022-10-03T13:44:56.212Z,19.03
2022-10-03T13:49:21.166Z,19.23
2022-10-03T13:53:59.528Z,19.25
2022-10-03T13:58:33.756Z,19.14
2022-10-03T14:03:00.128Z,19.01
2022-10-03T14:07:12.468Z,18.95
2022-10-03T14:11:26.695Z,18.90
2022-10-03T14:15:47.901Z,18.80
2022-10-03T14:20:20.648Z,18.82
2022-10-03T14:24:55.325Z,19.05
2022-10-03T14:29:32.206Z,19.22
2022-10-03T14:33:47.037Z,19.40
2022-10-03T14:38:12.202Z,19.37
2022-10-03T14:42:39.166Z,19.37
2022-10-03T14:46:58.736Z,19.22
2022-10-03T14:51:21.879Z,19.07
2022-10-03T14:55:35.951Z,19.03
2022-10-03T14:59:55.526Z,18.90
2022-10-03T15:04:18.762Z,19.06
2022-10-03T15:08:38.490Z,18.99
2022-10-03T15:12:51.443Z,18.80
2022-10-03T15:16:56.197Z,18.85
2022-10-03T15:21:05.502Z,18.56
2022-10-03T15:25:17.956Z,18.50
2022-10-03T15:29:25.651Z,18.35
2022-10-03T15:33:32.977Z,17.97
2022-10-03T15:37:47.610Z,17.94
2022-10-03T15:41:57.514Z,18.08
2022-10-03T15:46:06.723Z,17.84
2022-10-03T15:50:21.698Z,17.93
2022-10-03T15:54:33.890Z,17.73
2022-10-03T15:58:41.739Z,17.76
2022-10-03T16:02:56.628Z,17.64
2022-10-03T16:07:09.944Z,17.49
2022-10-03T16:11:20.856Z,17.22
2022-10-03T16:15:29.393Z,17.05
2022-10-03T16:19:40.291Z,17.14
2022-10-03T16:23:47.243Z,16.86
2022-10-03T16:27:59.971Z,16.75
2022-10-03T16:32:08.700Z,16.89
2022-10-03T16:36:21.375Z,16.80
2022-10-03T16:40:30.642Z,16.71
2022-10-03T16:49:20.665Z,16.69
2022-10-03T16:53:24.509Z,16.63
2022-10-03T16:57:34.574Z,16.58
2022-10-03T17:01:45.707Z,16.51
2022-10-03T17:05:53.628Z,16.42
2022-10-03T17:09:59.285Z,16.28
2022-10-03T17:14:08.049Z,16.10
2022-10-03T17:18:24.709Z,15.99
2022-10-03T17:22:38.239Z,15.84
2022-10-03T17:26:44.112Z,15.67
2022-10-03T17:30:52.585Z,15.63
2022-10-03T17:35:02.167Z,15.55
2022-10-03T17:39:12.020Z,15.49
2022-10-03T17:43:24.748Z,15.36
2022-10-03T17:47:38.993Z,15.38
2022-10-03T17:51:45.047Z,15.35
2022-10-03T17:55:54.739Z,15.32
2022-10-03T18:00:03.479Z,15.29
2022-10-03T18:04:14.463Z,15.32
2022-10-03T18:08:23.026Z,15.28
2022-10-03T18:12:35.778Z,15.24
2022-10-03T18:16:44.687Z,15.16
2022-10-03T18:20:52.289Z,15.05
2022-10-03T18:24:59.108Z,14.90
2022-10-03T18:29:17.755Z,14.79
2022-10-03T18:33:27.669Z,14.68
2022-10-03T18:38:00.192Z,14.63
2022-10-03T18:42:03.861Z,14.58
2022-10-03T18:46:26.519Z,14.57
2022-10-03T18:50:33.470Z,14.50
2022-10-03T18:54:45.777Z,14.55
2022-10-03T18:59:12.903Z,14.55
2022-10-03T19:03:22.459Z,14.55
2022-10-03T19:07:28.132Z,14.53
2022-10-03T19:11:37.900Z,14.50
2022-10-03T19:15:53.747Z,14.48
2022-10-03T19:20:02.357Z,14.45
2022-10-03T19:24:12.393Z,14.38
2022-10-03T19:28:21.097Z,14.27
2022-10-03T19:32:28.638Z,14.13
2022-10-03T19:36:41.833Z,13.95
2022-10-03T19:40:53.198Z,13.74
2022-10-03T19:44:58.951Z,13.52
2022-10-03T19:49:22.304Z,13.30
2022-10-03T19:53:27.395Z,13.10
2022-10-03T19:57:41.530Z,12.99
2022-10-03T20:01:46.662Z,12.91
2022-10-03T20:05:58.930Z,12.89
2022-10-03T20:10:17.886Z,12.84
2022-10-03T20:14:27.143Z,12.80
2022-10-03T20:18:34.658Z,12.75
2022-10-03T20:22:38.971Z,12.72
2022-10-03T20:26:50.824Z,12.68
2022-10-03T20:30:54.991Z,12.60
2022-10-03T20:35:00.423Z,12.49
2022-10-03T20:39:12.046Z,12.40
2022-10-03T20:43:42.381Z,12.32
2022-10-03T20:47:58.125Z,12.29
2022-10-03T20:52:03.782Z,12.27
2022-10-03T20:56:12.413Z,12.28
2022-10-03T21:00:23.085Z,12.27
2022-10-03T21:04:31.457Z,12.28
2022-10-03T21:08:38.969Z,12.31
2022-10-03T21:12:46.991Z,12.33
2022-10-03T21:16:53.105Z,12.37
2022-10-03T21:21:07.950Z,12.40
2022-10-03T21:25:22.290Z,12.44
2022-10-03T21:29:30.454Z,12.48
2022-10-03T21:33:40.772Z,12.50
2022-10-03T21:37:50.861Z,12.51
2022-10-03T21:42:14.777Z,12.53
2022-10-03T21:46:27.281Z,12.56
2022-10-03T21:50:42.814Z,12.57
2022-10-03T21:54:58.133Z,12.59
2022-10-03T21:59:20.434Z,12.59
2022-10-03T22:03:28.127Z,12.61
2022-10-03T22:07:40.643Z,12.61
2022-10-03T22:11:47.509Z,12.62
2022-10-03T22:15:55.107Z,12.61
2022-10-03T22:20:15.375Z,12.62
2022-10-03T22:24:28.875Z,12.60
2022-10-03T22:28:47.165Z,12.60
2022-10-03T22:33:04.160Z,12.58
2022-10-03T22:37:07.520Z,12.57
2022-10-03T22:41:18.098Z,12.55
2022-10-03T22:45:24.674Z,12.55
2022-10-03T22:49:35.653Z,12.57
2022-10-03T22:53:40.911Z,12.63
2022-10-03T22:57:47.414Z,12.68
2022-10-03T23:01:53.275Z,12.75
2022-10-03T23:06:19.470Z,12.83
2022-10-03T23:10:35.574Z,12.93
2022-10-03T23:14:44.793Z,13.01
2022-10-03T23:19:02.901Z,13.07
2022-10-03T23:23:16.094Z,13.13
2022-10-03T23:27:45.719Z,13.20
2022-10-03T23:31:59.679Z,13.26
2022-10-03T23:36:06.642Z,13.31
2022-10-03T23:40:39.090Z,13.38
2022-10-03T23:44:49.609Z,13.42
2022-10-03T23:48:57.564Z,13.42
2022-10-03T23:53:01.808Z,13.39
2022-10-03T23:57:09.372Z,13.30
